createdAt,value
2023-04-27T00:00:37.617Z,16.8
2023-04-27T00:01:43.725Z,16.8
2023-04-27T00:02:49.861Z,16.9
2023-04-27T00:03:55.949Z,16.8
2023-04-27T00:05:02.087Z,16.8
2023-04-27T00:06:08.178Z,16.8
2023-04-27T00:07:14.343Z,16.8
2023-04-27T00:08:20.413Z,16.8
2023-04-27T00:09:25.540Z,16.8
2023-04-27T00:10:31.652Z,16.8
2023-04-27T00:11:37.760Z,16.8
2023-04-27T00:12:43.876Z,16.8
2023-04-27T00:13:49.986Z,16.8
2023-04-27T00:14:56.098Z,16.8
2023-04-27T00:16:02.207Z,16.8
2023-04-27T00:18:14.435Z,16.8
2023-04-27T00:19:20.570Z,16.8
2023-04-27T00:20:26.675Z,16.8
2023-04-27T00:21:32.824Z,16.8
2023-04-27T00:22:38.903Z,16.8
2023-04-27T00:23:44.024Z,16.8
2023-04-27T00:24:50.131Z,16.8
2023-04-27T00:25:56.272Z,16.8
2023-04-27T00:27:02.395Z,16.8
2023-04-27T00:28:08.481Z,16.8
2023-04-27T00:29:14.596Z,16.8
2023-04-27T00:30:20.719Z,16.8
2023-04-27T00:31:26.833Z,16.8
2023-04-27T00:32:32.947Z,16.8
2023-04-27T00:33:39.062Z,16.8
2023-04-27T00:34:45.162Z,16.7
2023-04-27T00:35:51.284Z,16.7
2023-04-27T00:36:57.390Z,16.8
2023-04-27T00:38:02.579Z,16.8
2023-04-27T00:39:08.645Z,16.7
2023-04-27T00:40:14.753Z,16.8
2023-04-27T00:41:20.869Z,16.7
2023-04-27T00:42:26.977Z,16.7
2023-04-27T00:43:33.107Z,16.8
2023-04-27T00:44:39.210Z,16.7
2023-04-27T00:45:45.321Z,16.7
2023-04-27T00:46:51.433Z,16.7
2023-04-27T00:47:57.554Z,16.7
2023-04-27T00:49:03.676Z,16.7
2023-04-27T00:50:09.789Z,16.7
2023-04-27T00:51:15.887Z,16.7
2023-04-27T00:52:21.016Z,16.7
2023-04-27T00:53:27.137Z,16.7
2023-04-27T00:54:33.250Z,16.7
2023-04-27T00:55:39.367Z,16.7
2023-04-27T00:56:45.489Z,16.7
2023-04-27T00:57:51.590Z,16.7
2023-04-27T00:58:57.697Z,16.7
2023-04-27T01:00:03.819Z,16.7
2023-04-27T01:01:09.927Z,16.7
2023-04-27T01:02:16.037Z,16.7
2023-04-27T01:03:22.157Z,16.7
2023-04-27T01:04:28.271Z,16.7
2023-04-27T01:05:34.388Z,16.7
2023-04-27T01:06:39.589Z,16.7
2023-04-27T01:07:45.624Z,16.7
2023-04-27T01:08:51.735Z,16.7
2023-04-27T01:11:03.987Z,16.7
2023-04-27T01:12:10.085Z,16.7
2023-04-27T01:13:16.193Z,16.7
2023-04-27T01:14:22.298Z,16.7
2023-04-27T01:15:28.423Z,16.7
2023-04-27T01:16:34.528Z,16.7
2023-04-27T01:17:40.674Z,16.7
2023-04-27T01:18:46.825Z,16.7
2023-04-27T01:19:52.878Z,16.7
2023-04-27T01:20:58.017Z,16.6
2023-04-27T01:22:04.123Z,16.6
2023-04-27T01:23:10.258Z,16.6
2023-04-27T01:24:16.349Z,16.6
2023-04-27T01:25:22.461Z,16.6
2023-04-27T01:26:28.578Z,16.6
2023-04-27T01:27:34.687Z,16.6
2023-04-27T01:28:40.800Z,16.6
2023-04-27T01:29:46.916Z,16.6
2023-04-27T01:30:53.029Z,16.6
2023-04-27T01:31:59.188Z,16.6
2023-04-27T01:33:05.260Z,16.6
2023-04-27T01:34:11.374Z,16.6
2023-04-27T01:35:16.499Z,16.6
2023-04-27T01:36:22.624Z,16.6
2023-04-27T01:37:28.729Z,16.6
2023-04-27T01:38:34.839Z,16.6
2023-04-27T01:39:40.952Z,16.6
2023-04-27T01:40:47.071Z,16.6
2023-04-27T01:41:53.198Z,16.6
2023-04-27T01:42:59.294Z,16.6
2023-04-27T01:44:05.429Z,16.6
2023-04-27T01:45:11.533Z,16.6
2023-04-27T01:46:17.644Z,16.6
2023-04-27T01:47:23.756Z,16.6
2023-04-27T01:48:29.880Z,16.6
2023-04-27T01:49:35.000Z,16.6
2023-04-27T01:50:41.135Z,16.6
2023-04-27T01:51:47.255Z,16.6
2023-04-27T01:52:53.335Z,16.6
2023-04-27T01:53:59.468Z,16.6
2023-04-27T01:55:05.577Z,16.6
2023-04-27T01:56:11.676Z,16.6
2023-04-27T01:57:17.794Z,16.6
2023-04-27T01:58:23.911Z,16.6
2023-04-27T01:59:30.018Z,16.6
2023-04-27T02:00:36.130Z,16.6
2023-04-27T02:01:42.270Z,16.6
2023-04-27T02:02:48.372Z,16.6
2023-04-27T02:03:53.504Z,16.6
2023-04-27T02:04:59.656Z,16.5
2023-04-27T02:06:05.727Z,16.6
2023-04-27T02:07:11.837Z,16.6
2023-04-27T02:08:17.953Z,16.6
2023-04-27T02:09:24.075Z,16.5
2023-04-27T02:10:30.185Z,16.5
2023-04-27T02:11:36.299Z,16.5
2023-04-27T02:12:42.413Z,16.5
2023-04-27T02:13:48.515Z,16.5
2023-04-27T02:14:54.633Z,16.5
2023-04-27T02:16:00.751Z,16.5
2023-04-27T02:17:06.866Z,16.5
2023-04-27T02:18:11.999Z,16.5
2023-04-27T02:19:18.104Z,16.5
2023-04-27T02:20:24.231Z,16.5
2023-04-27T02:21:30.341Z,16.5
2023-04-27T02:22:36.453Z,16.5
2023-04-27T02:23:42.561Z,16.5
2023-04-27T02:24:48.671Z,16.5
2023-04-27T02:25:54.777Z,16.5
2023-04-27T02:27:00.904Z,16.5
2023-04-27T02:28:07.007Z,16.5
2023-04-27T02:29:13.131Z,16.5
2023-04-27T02:30:19.232Z,16.5
2023-04-27T02:31:25.361Z,16.5
2023-04-27T02:32:30.494Z,16.5
2023-04-27T02:33:36.588Z,16.5
2023-04-27T02:34:42.708Z,16.5
2023-04-27T02:35:48.894Z,16.5
2023-04-27T02:36:54.948Z,16.5
2023-04-27T02:38:01.058Z,16.5
2023-04-27T02:39:07.159Z,16.5
2023-04-27T02:40:13.303Z,16.5
2023-04-27T02:41:19.405Z,16.5
2023-04-27T02:42:25.505Z,16.5
2023-04-27T02:43:31.623Z,16.5
2023-04-27T02:44:37.783Z,16.5
2023-04-27T02:45:43.852Z,16.5
2023-04-27T02:46:48.977Z,16.5
2023-04-27T02:47:55.099Z,16.5
2023-04-27T02:49:01.209Z,16.5
2023-04-27T02:50:07.340Z,16.5
2023-04-27T02:51:13.435Z,16.5
2023-04-27T02:52:19.548Z,16.4
2023-04-27T02:53:25.659Z,16.5
2023-04-27T02:54:31.769Z,16.5
2023-04-27T02:55:37.881Z,16.5
2023-04-27T02:56:44.001Z,16.5
2023-04-27T02:57:50.110Z,16.5
2023-04-27T02:58:56.217Z,16.5
2023-04-27T03:00:02.345Z,16.4
2023-04-27T03:01:07.477Z,16.4
2023-04-27T03:02:13.581Z,16.4
2023-04-27T03:03:19.706Z,16.5
2023-04-27T03:04:25.804Z,16.4
2023-04-27T03:05:31.927Z,16.4
2023-04-27T03:06:38.044Z,16.4
2023-04-27T03:07:44.145Z,16.4
2023-04-27T03:08:50.263Z,16.4
2023-04-27T03:09:56.381Z,16.4
2023-04-27T03:11:02.490Z,16.4
2023-04-27T03:12:08.610Z,16.4
2023-04-27T03:13:14.716Z,16.4
2023-04-27T03:14:20.839Z,16.4
2023-04-27T03:15:25.967Z,16.4
2023-04-27T03:16:32.091Z,16.4
2023-04-27T03:17:38.188Z,16.4
2023-04-27T03:18:44.308Z,16.4
2023-04-27T03:19:50.415Z,16.4
2023-04-27T03:20:56.535Z,16.4
2023-04-27T03:22:02.643Z,16.4
2023-04-27T03:23:08.763Z,16.4
2023-04-27T03:24:14.899Z,16.4
2023-04-27T03:25:20.989Z,16.4
2023-04-27T03:26:27.109Z,16.4
2023-04-27T03:27:33.220Z,16.4
2023-04-27T03:28:39.333Z,16.4
2023-04-27T03:29:44.457Z,16.4
2023-04-27T03:30:50.581Z,16.4
2023-04-27T03:31:56.694Z,16.4
2023-04-27T03:33:02.800Z,16.4
2023-04-27T03:34:08.919Z,16.4
2023-04-27T03:35:15.028Z,16.4
2023-04-27T03:36:20.162Z,16.4
2023-04-27T03:37:26.286Z,16.4
2023-04-27T03:38:32.389Z,16.4
2023-04-27T03:39:38.508Z,16.4
2023-04-27T03:40:44.625Z,16.4
2023-04-27T03:41:50.728Z,16.4
2023-04-27T03:42:56.855Z,16.4
2023-04-27T03:44:02.958Z,16.4
2023-04-27T03:45:09.082Z,16.4
2023-04-27T03:46:15.185Z,16.3
2023-04-27T03:47:21.312Z,16.4
2023-04-27T03:48:27.451Z,16.4
2023-04-27T03:49:33.528Z,16.4
2023-04-27T03:50:38.663Z,16.4
2023-04-27T03:51:44.765Z,16.3
2023-04-27T03:52:50.886Z,16.3
2023-04-27T03:53:57.001Z,16.4
2023-04-27T03:55:03.108Z,16.3
2023-04-27T03:56:09.229Z,16.4
2023-04-27T03:57:15.346Z,16.3
2023-04-27T03:58:21.447Z,16.3
2023-04-27T03:59:27.568Z,16.3
2023-04-27T04:00:33.677Z,16.3
2023-04-27T04:01:39.800Z,16.3
2023-04-27T04:02:45.903Z,16.3
2023-04-27T04:03:52.029Z,16.3
2023-04-27T04:04:57.160Z,16.3
2023-04-27T04:06:03.273Z,16.3
2023-04-27T04:07:09.409Z,16.3
2023-04-27T04:08:15.525Z,16.3
2023-04-27T04:09:21.606Z,16.3
2023-04-27T04:10:27.723Z,16.3
2023-04-27T04:11:33.841Z,16.3
2023-04-27T04:12:39.951Z,16.3
2023-04-27T04:13:46.060Z,16.3
2023-04-27T04:14:52.173Z,16.3
2023-04-27T04:15:58.301Z,16.3
2023-04-27T04:17:04.401Z,16.3
2023-04-27T04:18:10.519Z,16.3
2023-04-27T04:19:15.650Z,16.3
2023-04-27T04:20:21.757Z,16.3
2023-04-27T04:21:27.879Z,16.3
2023-04-27T04:22:33.985Z,16.3
2023-04-27T04:23:40.107Z,16.3
2023-04-27T04:24:46.218Z,16.3
2023-04-27T04:25:52.342Z,16.3
2023-04-27T04:26:58.445Z,16.3
2023-04-27T04:28:04.559Z,16.3
2023-04-27T04:29:10.742Z,16.3
2023-04-27T04:30:16.784Z,16.3
2023-04-27T04:31:22.897Z,16.3
2023-04-27T04:32:29.022Z,16.3
2023-04-27T04:33:34.152Z,16.3
2023-04-27T04:34:40.262Z,16.3
2023-04-27T04:35:46.370Z,16.3
2023-04-27T04:36:52.491Z,16.3
2023-04-27T04:37:58.594Z,16.3
2023-04-27T04:39:04.717Z,16.3
2023-04-27T04:40:10.831Z,16.3
2023-04-27T04:41:16.938Z,16.3
2023-04-27T04:42:23.060Z,16.3
2023-04-27T04:43:29.169Z,16.3
2023-04-27T04:44:35.290Z,16.3
2023-04-27T04:45:41.393Z,16.3
2023-04-27T04:46:47.505Z,16.3
2023-04-27T04:47:52.665Z,16.2
2023-04-27T04:48:58.763Z,16.3
2023-04-27T04:50:04.861Z,16.3
2023-04-27T04:51:10.984Z,16.2
2023-04-27T04:52:17.095Z,16.2
2023-04-27T04:53:23.212Z,16.2
2023-04-27T04:54:29.320Z,16.3
2023-04-27T04:55:35.439Z,16.2
2023-04-27T04:56:41.559Z,16.2
2023-04-27T04:57:47.677Z,16.2
2023-04-27T04:58:53.792Z,16.2
2023-04-27T04:59:59.926Z,16.2
2023-04-27T05:01:06.001Z,16.2
2023-04-27T05:02:11.137Z,16.2
2023-04-27T05:03:17.279Z,16.2
2023-04-27T05:04:23.360Z,16.2
2023-04-27T05:05:29.479Z,16.2
2023-04-27T05:06:35.589Z,16.2
2023-04-27T05:07:41.705Z,16.2
2023-04-27T05:08:47.814Z,16.2
2023-04-27T05:09:53.919Z,16.2
2023-04-27T05:11:00.044Z,16.2
2023-04-27T05:12:06.165Z,16.2
2023-04-27T05:13:12.287Z,16.2
2023-04-27T05:14:18.388Z,16.2
2023-04-27T05:15:24.508Z,16.2
2023-04-27T05:16:29.629Z,16.2
2023-04-27T05:17:35.744Z,16.2
2023-04-27T05:18:41.912Z,16.2
2023-04-27T05:19:47.970Z,16.2
2023-04-27T05:20:54.092Z,16.2
2023-04-27T05:22:00.207Z,16.2
2023-04-27T05:23:06.354Z,16.2
2023-04-27T05:24:12.440Z,16.2
2023-04-27T05:25:18.537Z,16.2
2023-04-27T05:26:24.650Z,16.2
2023-04-27T05:27:30.769Z,16.2
2023-04-27T05:28:36.902Z,16.2
2023-04-27T05:29:43.001Z,16.2
2023-04-27T05:30:48.156Z,16.2
2023-04-27T05:31:54.233Z,16.2
2023-04-27T05:33:00.352Z,16.2
2023-04-27T05:34:06.469Z,16.2
2023-04-27T05:35:12.573Z,16.2
2023-04-27T05:36:18.711Z,16.1
2023-04-27T05:37:24.844Z,16.1
2023-04-27T05:38:30.922Z,16.2
2023-04-27T05:39:37.096Z,16.1
2023-04-27T05:40:43.155Z,16.1
2023-04-27T05:41:49.280Z,16.1
2023-04-27T05:42:55.391Z,16.1
2023-04-27T05:44:01.482Z,16.1
2023-04-27T05:45:06.641Z,16.1
2023-04-27T05:46:12.736Z,16.1
2023-04-27T05:47:18.845Z,16.1
2023-04-27T05:48:24.964Z,16.1
2023-04-27T05:49:31.073Z,16.1
2023-04-27T05:50:37.187Z,16.1
2023-04-27T05:51:43.303Z,16.1
2023-04-27T05:52:49.429Z,16.1
2023-04-27T05:53:55.520Z,16.1
2023-04-27T05:55:01.645Z,16.1
2023-04-27T05:56:07.766Z,16.1
2023-04-27T05:57:13.869Z,16.1
2023-04-27T05:58:19.990Z,16.1
2023-04-27T05:59:25.116Z,16.1
2023-04-27T06:00:31.277Z,16.1
2023-04-27T06:01:37.409Z,16.1
2023-04-27T06:02:43.517Z,16.1
2023-04-27T06:03:49.590Z,16.1
2023-04-27T06:04:55.789Z,16.1
2023-04-27T06:06:01.807Z,16.1
2023-04-27T06:07:07.907Z,16.1
2023-04-27T06:08:14.063Z,16.1
2023-04-27T06:09:20.161Z,16.1
2023-04-27T06:10:26.261Z,16.1
2023-04-27T06:11:32.366Z,16.1
2023-04-27T06:12:38.515Z,16.1
2023-04-27T06:13:43.612Z,16.1
2023-04-27T06:14:49.734Z,16.1
2023-04-27T06:15:55.841Z,16.1
2023-04-27T06:17:01.943Z,16.1
2023-04-27T06:18:08.078Z,16.1
2023-04-27T06:19:14.205Z,16.1
2023-04-27T06:20:20.298Z,16.1
2023-04-27T06:21:26.426Z,16.1
2023-04-27T06:22:32.519Z,16.1
2023-04-27T06:23:38.644Z,16.1
2023-04-27T06:24:44.749Z,16.1
2023-04-27T06:25:50.864Z,16.1
2023-04-27T06:26:57.150Z,16.1
2023-04-27T06:28:02.121Z,16.1
2023-04-27T06:29:08.350Z,16.1
2023-04-27T06:30:14.348Z,16.1
2023-04-27T06:31:20.486Z,16.1
2023-04-27T06:32:26.576Z,16.1
2023-04-27T06:33:32.678Z,16.1
2023-04-27T06:34:38.799Z,16.1
2023-04-27T06:35:45.043Z,16.1
2023-04-27T06:36:51.045Z,16.1
2023-04-27T06:37:57.130Z,16.1
2023-04-27T06:39:03.373Z,16.1
2023-04-27T06:40:09.353Z,16.1
2023-04-27T06:41:15.468Z,16
2023-04-27T06:42:20.610Z,16.1
2023-04-27T06:43:26.740Z,16
2023-04-27T06:44:32.838Z,16
2023-04-27T06:45:39.096Z,16
2023-04-27T06:46:45.072Z,16
2023-04-27T06:47:51.166Z,16
2023-04-27T06:48:57.373Z,16
2023-04-27T06:50:03.386Z,16
2023-04-27T06:51:09.510Z,16
2023-04-27T06:52:15.616Z,16
2023-04-27T06:53:21.737Z,16
2023-04-27T06:54:27.849Z,16
2023-04-27T06:55:33.966Z,16
2023-04-27T06:56:39.094Z,16
2023-04-27T06:57:45.229Z,16
2023-04-27T06:58:51.355Z,16
2023-04-27T06:59:57.439Z,16
2023-04-27T07:01:03.700Z,16
2023-04-27T07:02:09.674Z,16
2023-04-27T07:03:15.779Z,16
2023-04-27T07:04:21.880Z,16
2023-04-27T07:05:27.997Z,16
2023-04-27T07:06:34.114Z,16
2023-04-27T07:07:40.295Z,16
2023-04-27T07:08:46.484Z,16
2023-04-27T07:09:52.574Z,16
2023-04-27T07:10:57.591Z,16
2023-04-27T07:12:03.720Z,16
2023-04-27T07:13:09.884Z,16
2023-04-27T07:14:15.932Z,16
2023-04-27T07:15:22.051Z,16
2023-04-27T07:16:28.160Z,16
2023-04-27T07:17:33.308Z,16
2023-04-27T07:18:39.403Z,16
2023-04-27T07:19:45.531Z,16
2023-04-27T07:20:51.632Z,16
2023-04-27T07:21:57.765Z,16
2023-04-27T07:23:03.873Z,16
2023-04-27T07:24:09.984Z,16
2023-04-27T07:25:16.140Z,16
2023-04-27T07:26:22.212Z,16
2023-04-27T07:27:28.392Z,16
2023-04-27T07:28:34.467Z,16
2023-04-27T07:29:40.550Z,16
2023-04-27T07:30:46.683Z,16
2023-04-27T07:31:51.791Z,16
2023-04-27T07:32:57.930Z,16
2023-04-27T07:34:04.040Z,16
2023-04-27T07:35:10.128Z,16
2023-04-27T07:36:16.354Z,16
2023-04-27T07:37:22.461Z,16
2023-04-27T07:38:28.544Z,16
2023-04-27T07:39:34.691Z,16
2023-04-27T07:41:46.810Z,15.9
2023-04-27T07:42:53.118Z,16
2023-04-27T07:43:59.060Z,15.9
2023-04-27T07:45:05.202Z,15.9
2023-04-27T07:46:10.330Z,15.9
2023-04-27T07:47:16.398Z,15.9
2023-04-27T07:48:22.539Z,15.9
2023-04-27T07:49:28.772Z,15.9
2023-04-27T07:50:34.862Z,15.9
2023-04-27T07:51:40.993Z,15.9
2023-04-27T07:52:46.968Z,15.9
2023-04-27T07:54:59.266Z,15.9
2023-04-27T07:56:05.345Z,15.9
2023-04-27T07:57:11.516Z,15.9
2023-04-27T07:58:17.613Z,15.9
2023-04-27T07:59:23.754Z,15.9
2023-04-27T08:00:28.934Z,15.9
2023-04-27T08:01:34.889Z,15.9
2023-04-27T08:02:41.076Z,15.9
2023-04-27T08:03:47.157Z,15.9
2023-04-27T08:04:53.284Z,15.9
2023-04-27T08:05:59.489Z,15.9
2023-04-27T08:07:05.459Z,15.9
2023-04-27T08:08:11.605Z,15.9
2023-04-27T08:09:17.716Z,15.9
2023-04-27T08:10:23.805Z,15.9
2023-04-27T08:11:29.950Z,15.9
2023-04-27T08:12:36.021Z,15.9
2023-04-27T08:13:42.160Z,15.9
2023-04-27T08:14:47.402Z,15.9
2023-04-27T08:15:53.678Z,15.9
2023-04-27T08:16:59.496Z,15.9
2023-04-27T08:18:05.823Z,15.9
2023-04-27T08:19:11.738Z,15.9
2023-04-27T08:20:17.881Z,15.9
2023-04-27T08:21:23.962Z,15.9
2023-04-27T08:22:30.062Z,15.9
2023-04-27T08:23:36.186Z,15.9
2023-04-27T08:24:42.303Z,15.9
2023-04-27T08:25:48.416Z,15.9
2023-04-27T08:26:54.532Z,15.9
2023-04-27T08:28:00.651Z,15.9
2023-04-27T08:29:05.892Z,15.9
2023-04-27T08:30:11.910Z,15.9
2023-04-27T08:31:17.998Z,15.9
2023-04-27T08:32:24.109Z,15.9
2023-04-27T08:33:30.352Z,15.8
2023-04-27T08:34:36.433Z,15.8
2023-04-27T08:35:42.462Z,15.8
2023-04-27T08:36:48.578Z,15.8
2023-04-27T08:39:00.795Z,15.8
2023-04-27T08:40:06.937Z,15.8
2023-04-27T08:41:13.022Z,15.8
2023-04-27T08:43:25.296Z,15.8
2023-04-27T08:44:30.400Z,15.8
2023-04-27T08:45:36.517Z,15.8
2023-04-27T08:46:42.613Z,15.8
2023-04-27T08:47:48.786Z,15.8
2023-04-27T08:48:54.852Z,15.8
2023-04-27T08:50:00.964Z,15.8
2023-04-27T08:51:07.089Z,15.8
2023-04-27T08:52:13.259Z,15.8
2023-04-27T08:53:19.293Z,15.8
2023-04-27T08:54:25.439Z,15.8
2023-04-27T08:55:31.547Z,15.8
2023-04-27T08:56:37.639Z,15.8
2023-04-27T08:57:43.738Z,15.8
2023-04-27T08:58:48.924Z,15.8
2023-04-27T08:59:55.067Z,15.8
2023-04-27T09:01:01.104Z,15.8
2023-04-27T09:02:07.238Z,15.8
2023-04-27T09:03:13.392Z,15.8
2023-04-27T09:05:25.726Z,15.8
2023-04-27T09:06:31.678Z,15.8
2023-04-27T09:07:37.860Z,15.8
2023-04-27T09:09:50.034Z,15.8
2023-04-27T09:10:56.150Z,15.8
2023-04-27T09:12:02.285Z,15.8
2023-04-27T09:13:07.444Z,15.8
2023-04-27T09:14:13.588Z,15.8
2023-04-27T09:15:19.665Z,15.8
2023-04-27T09:16:25.723Z,15.8
2023-04-27T09:17:31.863Z,15.8
2023-04-27T09:18:38.143Z,15.8
2023-04-27T09:19:44.212Z,15.8
2023-04-27T09:20:50.298Z,15.8
2023-04-27T09:21:56.432Z,15.8
2023-04-27T09:23:02.416Z,15.8
2023-04-27T09:24:08.606Z,15.8
2023-04-27T09:25:14.834Z,15.8
2023-04-27T09:26:20.742Z,15.8
2023-04-27T09:27:26.054Z,15.8
2023-04-27T09:28:32.186Z,15.8
2023-04-27T09:29:38.156Z,15.8
2023-04-27T09:30:44.229Z,15.8
2023-04-27T09:31:50.328Z,15.8
2023-04-27T09:32:56.443Z,15.8
2023-04-27T09:34:02.602Z,15.8
2023-04-27T09:35:08.753Z,15.8
2023-04-27T09:36:14.784Z,15.8
2023-04-27T09:37:20.897Z,15.8
2023-04-27T09:38:27.016Z,15.8
2023-04-27T09:39:33.132Z,15.8
2023-04-27T09:42:51.480Z,15.8
2023-04-27T09:43:56.593Z,15.8
2023-04-27T09:45:02.717Z,15.8
2023-04-27T09:46:08.811Z,15.8
2023-04-27T09:48:21.052Z,15.8
2023-04-27T09:49:26.190Z,15.8
2023-04-27T09:50:31.316Z,15.8
2023-04-27T09:51:37.428Z,15.8
2023-04-27T09:52:43.552Z,15.8
2023-04-27T09:53:49.659Z,15.8
2023-04-27T09:54:55.771Z,15.8
2023-04-27T09:56:01.887Z,15.8
2023-04-27T09:57:07.994Z,15.8
2023-04-27T09:58:14.134Z,15.8
2023-04-27T09:59:20.231Z,15.8
2023-04-27T10:00:26.341Z,15.8
2023-04-27T10:01:31.470Z,15.8
2023-04-27T10:02:36.604Z,15.7
2023-04-27T10:03:42.757Z,15.8
2023-04-27T10:04:48.819Z,15.8
2023-04-27T10:07:01.064Z,15.8
2023-04-27T10:08:07.181Z,15.7
2023-04-27T10:09:13.291Z,15.7
2023-04-27T10:10:19.395Z,15.7
2023-04-27T10:12:31.795Z,15.7
2023-04-27T10:13:37.796Z,15.7
2023-04-27T10:14:43.919Z,15.7
2023-04-27T10:15:49.119Z,15.7
2023-04-27T10:16:54.121Z,15.7
2023-04-27T10:17:59.282Z,15.7
2023-04-27T10:19:04.524Z,15.7
2023-04-27T10:20:09.523Z,15.7
2023-04-27T10:21:14.803Z,15.7
2023-04-27T10:22:19.801Z,15.7
2023-04-27T10:23:24.924Z,15.7
2023-04-27T10:24:31.044Z,15.7
2023-04-27T10:25:37.274Z,15.7
2023-04-27T10:27:49.379Z,15.7
2023-04-27T10:28:55.697Z,15.7
2023-04-27T10:30:01.588Z,15.7
2023-04-27T10:31:07.740Z,15.7
2023-04-27T10:32:13.925Z,15.7
2023-04-27T10:33:20.002Z,15.7
2023-04-27T10:34:26.076Z,15.7
2023-04-27T10:35:32.170Z,15.7
2023-04-27T10:36:38.283Z,15.7
2023-04-27T10:37:43.462Z,15.7
2023-04-27T10:38:49.556Z,15.7
2023-04-27T10:39:55.639Z,15.7
2023-04-27T10:41:01.874Z,15.7
2023-04-27T10:42:07.912Z,15.7
2023-04-27T10:43:14.118Z,15.7
2023-04-27T10:44:20.156Z,15.7
2023-04-27T10:45:26.211Z,15.7
2023-04-27T10:46:31.367Z,15.7
2023-04-27T10:47:36.487Z,15.7
2023-04-27T10:48:41.648Z,15.7
2023-04-27T10:49:46.738Z,15.7
2023-04-27T10:50:51.955Z,15.7
2023-04-27T10:51:57.014Z,15.7
2023-04-27T10:53:03.123Z,15.7
2023-04-27T10:54:09.233Z,15.6
2023-04-27T10:55:15.348Z,15.7
2023-04-27T10:56:21.470Z,15.6
2023-04-27T10:57:27.611Z,15.7
2023-04-27T10:58:32.736Z,15.6
2023-04-27T10:59:38.834Z,15.6
2023-04-27T11:00:45.140Z,15.6
2023-04-27T11:01:51.064Z,15.6
2023-04-27T11:02:57.184Z,15.6
2023-04-27T11:04:03.340Z,15.6
2023-04-27T11:05:09.410Z,15.6
2023-04-27T11:07:21.624Z,15.6
2023-04-27T11:08:27.931Z,15.6
2023-04-27T11:09:33.912Z,15.6
2023-04-27T11:10:39.955Z,15.6
2023-04-27T11:11:46.077Z,15.6
2023-04-27T11:12:51.196Z,15.6
2023-04-27T11:13:57.365Z,15.6
2023-04-27T11:16:08.601Z,15.6
2023-04-27T11:17:13.705Z,15.6
2023-04-27T11:18:18.847Z,15.6
2023-04-27T11:19:24.964Z,15.6
2023-04-27T11:20:31.068Z,15.6
2023-04-27T11:21:37.178Z,15.6
2023-04-27T11:22:43.298Z,15.6
2023-04-27T11:23:49.469Z,15.6
2023-04-27T11:24:55.539Z,15.6
2023-04-27T11:26:01.694Z,15.6
2023-04-27T11:27:07.739Z,15.6
2023-04-27T11:29:20.061Z,15.6
2023-04-27T11:30:26.102Z,15.6
2023-04-27T11:31:32.199Z,15.6
2023-04-27T11:32:37.336Z,15.6
2023-04-27T11:33:43.451Z,15.6
2023-04-27T11:34:49.641Z,15.6
2023-04-27T11:35:55.699Z,15.6
2023-04-27T11:37:01.786Z,15.6
2023-04-27T11:38:08.048Z,15.6
2023-04-27T11:39:14.018Z,15.6
2023-04-27T11:40:20.266Z,15.6
2023-04-27T11:41:25.332Z,15.6
2023-04-27T11:42:30.498Z,15.6
2023-04-27T11:43:35.659Z,15.6
2023-04-27T11:44:40.721Z,15.6
2023-04-27T11:45:45.887Z,15.6
2023-04-27T11:46:50.909Z,15.6
2023-04-27T11:47:57.170Z,15.6
2023-04-27T11:49:03.198Z,15.6
2023-04-27T11:50:09.320Z,15.6
2023-04-27T11:51:15.407Z,15.6
2023-04-27T11:52:21.507Z,15.6
2023-04-27T11:53:27.676Z,15.6
2023-04-27T11:54:33.731Z,15.6
2023-04-27T11:55:39.886Z,15.6
2023-04-27T11:56:46.100Z,15.6
2023-04-27T11:57:52.084Z,15.6
2023-04-27T11:58:58.266Z,15.6
2023-04-27T12:00:04.300Z,15.6
2023-04-27T12:01:09.455Z,15.6
2023-04-27T12:03:21.684Z,15.6
2023-04-27T12:04:27.841Z,15.6
2023-04-27T12:05:33.913Z,15.6
2023-04-27T12:06:39.995Z,15.6
2023-04-27T12:07:46.115Z,15.6
2023-04-27T12:08:52.213Z,15.6
2023-04-27T12:09:57.362Z,15.6
2023-04-27T12:11:02.540Z,15.6
2023-04-27T12:12:07.631Z,15.6
2023-04-27T12:13:12.748Z,15.6
2023-04-27T12:14:18.862Z,15.6
2023-04-27T12:15:24.979Z,15.6
2023-04-27T12:16:31.186Z,15.6
2023-04-27T12:17:37.250Z,15.6
2023-04-27T12:18:43.324Z,15.6
2023-04-27T12:19:49.437Z,15.6
2023-04-27T12:20:55.570Z,15.6
2023-04-27T12:22:01.681Z,15.6
2023-04-27T12:23:07.831Z,15.6
2023-04-27T12:24:13.894Z,15.6
2023-04-27T12:25:20.034Z,15.5
2023-04-27T12:27:32.232Z,15.5
2023-04-27T12:28:37.363Z,15.5
2023-04-27T12:29:43.616Z,15.5
2023-04-27T12:30:49.590Z,15.5
2023-04-27T12:31:55.719Z,15.5
2023-04-27T12:33:01.827Z,15.5
2023-04-27T12:34:07.937Z,15.5
2023-04-27T12:35:14.038Z,15.5
2023-04-27T12:36:19.196Z,15.5
2023-04-27T12:37:24.315Z,15.5
2023-04-27T12:38:29.450Z,15.5
2023-04-27T12:39:34.571Z,15.5
2023-04-27T12:41:46.820Z,15.5
2023-04-27T12:43:59.079Z,15.5
2023-04-27T12:45:05.172Z,15.5
2023-04-27T12:46:11.274Z,15.5
2023-04-27T12:47:17.382Z,15.5
2023-04-27T12:49:29.608Z,15.5
2023-04-27T12:50:35.711Z,15.5
2023-04-27T12:51:41.835Z,15.5
2023-04-27T12:52:47.943Z,15.5
2023-04-27T12:53:53.091Z,15.5
2023-04-27T12:54:58.277Z,15.5
2023-04-27T12:56:04.385Z,15.5
2023-04-27T12:57:10.471Z,15.5
2023-04-27T12:58:16.622Z,15.5
2023-04-27T12:59:22.746Z,15.5
2023-04-27T13:00:28.783Z,15.5
2023-04-27T13:01:35.015Z,15.5
2023-04-27T13:02:41.130Z,15.5
2023-04-27T13:03:47.161Z,15.5
2023-04-27T13:04:53.221Z,15.5
2023-04-27T13:05:58.433Z,15.5
2023-04-27T13:07:03.510Z,15.5
2023-04-27T13:08:09.729Z,15.5
2023-04-27T13:09:15.758Z,15.5
2023-04-27T13:10:21.840Z,15.5
2023-04-27T13:12:34.094Z,15.5
2023-04-27T13:13:40.203Z,15.5
2023-04-27T13:14:46.327Z,15.5
2023-04-27T13:15:52.460Z,15.5
2023-04-27T13:16:58.604Z,15.5
2023-04-27T13:18:04.700Z,15.5
2023-04-27T13:19:10.740Z,15.5
2023-04-27T13:20:16.851Z,15.5
2023-04-27T13:21:21.968Z,15.5
2023-04-27T13:22:28.096Z,15.5
2023-04-27T13:23:34.222Z,15.5
2023-04-27T13:24:40.324Z,15.5
2023-04-27T13:25:46.443Z,15.5
2023-04-27T13:26:52.559Z,15.5
2023-04-27T13:27:58.674Z,15.5
2023-04-27T13:29:04.881Z,15.5
2023-04-27T13:30:09.925Z,15.5
2023-04-27T13:31:15.054Z,15.5
2023-04-27T13:32:20.198Z,15.5
2023-04-27T13:33:25.316Z,15.5
2023-04-27T13:34:31.467Z,15.5
2023-04-27T13:35:37.569Z,15.5
2023-04-27T13:36:43.734Z,15.5
2023-04-27T13:37:49.766Z,15.5
2023-04-27T13:38:55.878Z,15.5
2023-04-27T13:40:02.010Z,15.5
2023-04-27T13:41:08.111Z,15.5
2023-04-27T13:42:14.284Z,15.5
2023-04-27T13:43:20.339Z,15.5
2023-04-27T13:44:26.452Z,15.5
2023-04-27T13:45:32.620Z,15.5
2023-04-27T13:46:38.722Z,15.5
2023-04-27T13:47:43.813Z,15.5
2023-04-27T13:48:49.925Z,15.5
2023-04-27T13:49:56.127Z,15.5
2023-04-27T13:51:02.254Z,15.5
2023-04-27T13:52:08.354Z,15.5
2023-04-27T13:53:14.384Z,15.5
2023-04-27T13:54:20.481Z,15.5
2023-04-27T13:55:25.686Z,15.5
2023-04-27T13:56:30.804Z,15.5
2023-04-27T13:57:35.924Z,15.5
2023-04-27T13:58:41.142Z,15.5
2023-04-27T13:59:47.147Z,15.5
2023-04-27T14:00:53.253Z,15.5
2023-04-27T14:01:59.380Z,15.5
2023-04-27T14:03:05.559Z,15.5
2023-04-27T14:04:11.727Z,15.5
2023-04-27T14:05:17.712Z,15.5
2023-04-27T14:06:23.826Z,15.5
2023-04-27T14:07:29.929Z,15.5
2023-04-27T14:08:36.097Z,15.5
2023-04-27T14:09:42.393Z,15.5
2023-04-27T14:10:48.363Z,15.5
2023-04-27T14:11:54.524Z,15.5
2023-04-27T14:12:59.576Z,15.5
2023-04-27T14:14:05.680Z,15.5
2023-04-27T14:15:11.844Z,15.5
2023-04-27T14:16:17.861Z,15.5
2023-04-27T14:17:23.982Z,15.5
2023-04-27T14:18:30.140Z,15.5
2023-04-27T14:19:36.258Z,15.5
2023-04-27T14:20:41.426Z,15.5
2023-04-27T14:21:46.478Z,15.5
2023-04-27T14:22:52.612Z,15.4
2023-04-27T14:23:57.726Z,15.5
2023-04-27T14:25:02.865Z,15.5
2023-04-27T14:26:08.970Z,15.5
2023-04-27T14:27:15.128Z,15.5
2023-04-27T14:28:21.190Z,15.4
2023-04-27T14:29:27.311Z,15.5
2023-04-27T14:30:33.429Z,15.5
2023-04-27T14:31:39.526Z,15.4
2023-04-27T14:32:45.723Z,15.4
2023-04-27T14:33:51.846Z,15.5
2023-04-27T14:34:57.890Z,15.5
2023-04-27T14:36:03.988Z,15.4
2023-04-27T14:37:10.092Z,15.5
2023-04-27T14:38:16.285Z,15.4
2023-04-27T14:39:21.482Z,15.5
2023-04-27T14:40:27.531Z,15.4
2023-04-27T14:41:33.659Z,15.4
2023-04-27T14:42:39.699Z,15.5
2023-04-27T14:43:45.808Z,15.4
2023-04-27T14:44:51.921Z,15.5
2023-04-27T14:45:58.068Z,15.5
2023-04-27T14:47:03.161Z,15.5
2023-04-27T14:48:08.331Z,15.5
2023-04-27T14:49:14.472Z,15.5
2023-04-27T14:50:19.569Z,15.5
2023-04-27T14:51:25.672Z,15.4
2023-04-27T14:52:30.804Z,15.5
2023-04-27T14:54:43.032Z,15.5
2023-04-27T14:55:49.167Z,15.4
2023-04-27T14:56:55.253Z,15.4
2023-04-27T14:58:01.370Z,15.5
2023-04-27T14:59:07.581Z,15.4
2023-04-27T15:00:13.597Z,15.4
2023-04-27T15:01:19.697Z,15.4
2023-04-27T15:02:25.824Z,15.4
2023-04-27T15:03:31.936Z,15.4
2023-04-27T15:04:38.065Z,15.5
2023-04-27T15:05:44.193Z,15.5
2023-04-27T15:06:49.354Z,15.5
2023-04-27T15:07:55.417Z,15.4
2023-04-27T15:09:01.623Z,15.4